Time;durP1;ratioP1;P1;durP2;ratioP2;P2;SDS_P1;SDS_P2;PMS_P1;PMS_P2;Temp;Humidity;BMP_temperature;BMP_pressure;BME280_temperature;BME280_humidity;BME280_pressure;Samples;Min_cycle;Max_cycle;Signal;HPM_P1;HPM_P2
2023/10/14 00:01:13;;;;;;;11.20;2.17;;;;;;;11.16;nan;100368.28;5036415;28;20045;-78
2023/10/14 00:03:43;;;;;;;16.35;2.22;;;;;;;11.15;nan;100369.28;5035760;28;20117;-78
2023/10/14 00:06:12;;;;;;;23.13;2.85;;;;;;;11.13;nan;100380.06;5035555;28;20025;-77
2023/10/14 00:08:57;;;;;;;28.55;3.13;;;;;;;11.02;nan;100390.97;5037638;28;20080;-77
2023/10/14 00:11:26;;;;;;;14.73;2.30;;;;;;;11.06;nan;100389.66;5035896;28;20109;-78
2023/10/14 00:13:56;;;;;;;15.65;2.30;;;;;;;10.96;nan;100394.22;5035671;28;20037;-78
2023/10/14 00:18:59;;;;;;;18.38;2.30;;;;;;;10.86;nan;100404.97;5036153;28;20053;-78
2023/10/14 00:21:26;;;;;;;18.58;3.05;;;;;;;10.82;nan;100411.56;5035177;28;20040;-80
2023/10/14 00:23:55;;;;;;;15.63;2.17;;;;;;;10.84;nan;100420.22;5034015;28;20108;-78
2023/10/14 00:26:23;;;;;;;12.93;2.25;;;;;;;10.77;nan;100423.50;5034158;28;20119;-79
2023/10/14 00:28:54;;;;;;;19.67;2.22;;;;;;;10.83;nan;100431.88;5015975;28;20424;-78
2023/10/14 00:31:23;;;;;;;12.65;2.30;;;;;;;10.83;nan;100437.22;5033781;28;20041;-78
2023/10/14 00:33:48;;;;;;;13.10;2.25;;;;;;;10.81;nan;100456.00;5033727;28;20113;-79
2023/10/14 00:36:16;;;;;;;22.95;2.80;;;;;;;10.79;nan;100449.13;5033660;28;20104;-80
2023/10/14 00:38:45;;;;;;;10.93;2.33;;;;;;;10.80;nan;100459.63;5016192;28;20389;-77
2023/10/14 00:41:13;;;;;;;13.82;2.22;;;;;;;10.79;nan;100467.75;5033854;28;20038;-79
2023/10/14 00:43:39;;;;;;;14.45;2.20;;;;;;;10.76;nan;100476.88;5034007;28;20104;-79
2023/10/14 00:46:15;;;;;;;13.95;2.47;;;;;;;10.70;nan;100477.47;5033184;28;20437;-79
2023/10/14 00:48:46;;;;;;;11.98;2.00;;;;;;;10.94;nan;100484.88;5033630;28;20037;-79
2023/10/14 00:51:13;;;;;;;14.63;2.78;;;;;;;10.88;nan;100481.03;5014699;28;20022;-78
2023/10/14 00:53:39;;;;;;;14.98;2.15;;;;;;;10.89;nan;100476.53;5032888;28;20121;-77
2023/10/14 00:56:06;;;;;;;12.55;2.05;;;;;;;10.90;nan;100496.84;5033110;28;20405;-81
2023/10/14 00:58:39;;;;;;;9.05;1.98;;;;;;;10.92;nan;100489.53;5033198;28;20112;-80
2023/10/14 01:01:08;;;;;;;19.33;2.60;;;;;;;10.77;nan;100499.84;5033076;28;20038;-80
2023/10/14 01:03:34;;;;;;;6.60;2.00;;;;;;;10.71;nan;100509.25;5032850;28;20029;-79
2023/10/14 01:06:15;;;;;;;16.35;2.03;;;;;;;10.75;nan;100504.50;5033234;28;20465;-79
2023/10/14 01:08:43;;;;;;;10.88;2.25;;;;;;;10.75;nan;100515.13;5033110;28;20040;-79
2023/10/14 01:11:09;;;;;;;11.18;3.38;;;;;;;10.73;nan;100525.06;5032965;28;20041;-79
2023/10/14 01:13:34;;;;;;;16.05;2.90;;;;;;;10.75;nan;100526.59;5032880;28;20068;-79
2023/10/14 01:16:08;;;;;;;13.98;2.47;;;;;;;10.69;nan;100537.84;5015155;28;20081;-78
2023/10/14 01:18:37;;;;;;;11.25;2.10;;;;;;;10.67;nan;100530.97;5032760;28;20034;-81
2023/10/14 01:21:03;;;;;;;9.40;2.15;;;;;;;10.62;nan;100546.56;4999266;28;20061;-79
2023/10/14 01:23:28;;;;;;;11.07;1.85;;;;;;;10.66;nan;100550.59;5032984;28;20423;-80
2023/10/14 01:25:54;;;;;;;13.45;2.40;;;;;;;10.68;nan;100541.47;5032992;28;20377;-79
2023/10/14 01:28:30;;;;;;;7.88;1.60;;;;;;;10.70;nan;100552.84;5032929;28;20122;-79
2023/10/14 01:31:10;;;;;;;13.45;2.65;;;;;;;10.72;nan;100552.69;5032783;28;20035;-78
2023/10/14 01:33:36;;;;;;;14.95;2.00;;;;;;;10.78;nan;100560.06;5032674;28;20036;-78
2023/10/14 01:36:02;;;;;;;16.60;2.10;;;;;;;10.27;nan;100567.50;5014835;28;20037;-79
2023/10/14 01:38:30;;;;;;;18.15;2.05;;;;;;;10.18;nan;100574.53;5032221;28;20132;-78
2023/10/14 01:40:56;;;;;;;8.63;1.85;;;;;;;10.17;nan;100582.63;5033448;28;20045;-79
2023/10/14 01:43:24;;;;;;;9.82;1.45;;;;;;;10.12;nan;100574.22;5032587;28;20055;-79
2023/10/14 01:46:00;;;;;;;10.30;2.08;;;;;;;10.12;nan;100577.75;5032065;28;20120;-79
2023/10/14 01:48:30;;;;;;;11.63;1.90;;;;;;;10.16;nan;100583.59;5031890;28;20067;-79
2023/10/14 01:50:55;;;;;;;12.15;1.90;;;;;;;10.20;nan;100582.34;5032137;28;20065;-79
2023/10/14 01:53:25;;;;;;;12.40;1.90;;;;;;;10.28;nan;100593.09;5032023;28;20347;-79
2023/10/14 01:55:55;;;;;;;11.55;1.98;;;;;;;10.32;nan;100585.69;5031973;28;20037;-79
2023/10/14 01:58:22;;;;;;;14.30;2.15;;;;;;;10.45;nan;100596.88;5032002;28;20124;-78
2023/10/14 02:00:52;;;;;;;10.70;2.20;;;;;;;10.51;nan;100608.75;5031926;28;20033;-80
2023/10/14 02:03:20;;;;;;;17.15;2.22;;;;;;;10.53;nan;100612.94;5031441;28;20071;-78
2023/10/14 02:05:45;;;;;;;16.27;2.20;;;;;;;10.52;nan;100621.06;5031927;28;20052;-78
2023/10/14 02:08:14;;;;;;;13.13;2.00;;;;;;;10.51;nan;100619.38;5031886;28;20029;-79
2023/10/14 02:10:47;;;;;;;15.25;2.25;;;;;;;10.45;nan;100623.47;5032382;28;20119;-77
2023/10/14 02:13:19;;;;;;;15.32;2.72;;;;;;;10.41;nan;100641.53;5031818;28;20362;-80
2023/10/14 02:15:48;;;;;;;14.80;2.20;;;;;;;10.37;nan;100634.81;5014477;28;20037;-79
2023/10/14 02:18:16;;;;;;;17.90;2.65;;;;;;;10.41;nan;100659.31;5031653;28;20178;-77
2023/10/14 02:20:56;;;;;;;22.42;1.98;;;;;;;10.47;nan;100647.28;5031597;28;20116;-79
2023/10/14 02:23:26;;;;;;;17.73;2.00;;;;;;;10.52;nan;100653.00;5031445;28;20033;-77
2023/10/14 02:25:56;;;;;;;15.18;1.95;;;;;;;10.55;nan;100666.00;5031312;28;20034;-77
2023/10/14 02:28:29;;;;;;;15.13;2.05;;;;;;;10.57;nan;100675.53;5031271;28;20041;-77
2023/10/14 02:30:59;;;;;;;14.32;1.80;;;;;;;10.67;nan;100682.66;5031096;28;20108;-79
2023/10/14 02:33:25;;;;;;;13.10;1.67;;;;;;;10.67;nan;100678.16;5014003;28;20120;-79
2023/10/14 02:35:50;;;;;;;11.23;1.65;;;;;;;10.66;nan;100686.28;5013125;28;20280;-79
2023/10/14 02:38:17;;;;;;;11.85;2.15;;;;;;;10.62;nan;100695.56;5030956;28;20036;-79
2023/10/14 02:40:42;;;;;;;10.40;2.15;;;;;;;10.56;nan;100700.44;5030937;28;20075;-79
2023/10/14 02:43:08;;;;;;;11.07;1.60;;;;;;;10.51;nan;100705.38;5031257;28;20108;-78
2023/10/14 02:45:41;;;;;;;15.35;2.53;;;;;;;10.46;nan;100714.75;5030821;28;20030;-79
2023/10/14 02:48:06;;;;;;;9.15;2.20;;;;;;;10.46;nan;100718.25;5030739;28;20087;-80
2023/10/14 02:50:32;;;;;;;15.68;2.47;;;;;;;10.38;nan;100723.44;5012786;28;20025;-79
2023/10/14 02:53:06;;;;;;;10.32;1.60;;;;;;;10.32;nan;100727.47;5030348;28;20397;-79
2023/10/14 02:55:52;;;;;;;13.18;2.25;;;;;;;10.23;nan;100734.44;5030499;28;20538;-78
2023/10/14 02:58:20;;;;;;;16.23;1.92;;;;;;;10.14;nan;100739.78;5030592;28;20474;-79
2023/10/14 03:00:49;;;;;;;11.65;1.70;;;;;;;10.05;nan;100747.59;5030779;28;20045;-78
2023/10/14 03:03:15;;;;;;;8.88;2.20;;;;;;;10.04;nan;100747.72;5030748;28;20109;-79
2023/10/14 03:05:53;;;;;;;11.48;1.67;;;;;;;10.12;nan;100758.53;5030808;28;20124;-79
2023/10/14 03:08:22;;;;;;;13.55;2.50;;;;;;;10.18;nan;100757.13;5030690;28;20076;-83
2023/10/14 03:10:55;;;;;;;11.80;1.45;;;;;;;10.21;nan;100757.69;5048624;28;20045;-77
2023/10/14 03:13:22;;;;;;;14.15;2.53;;;;;;;10.27;nan;100766.94;5050703;28;20178;-77
2023/10/14 03:15:52;;;;;;;9.27;1.67;;;;;;;10.40;nan;100770.19;5049914;28;20458;-76
2023/10/14 03:18:18;;;;;;;12.02;1.55;;;;;;;10.41;nan;100771.03;5050776;28;20455;-76
2023/10/14 03:23:24;;;;;;;16.02;2.83;;;;;;;10.38;nan;100789.94;5050500;28;20044;-77
2023/10/14 03:25:51;;;;;;;18.02;2.40;;;;;;;10.45;nan;100790.19;5050131;28;20129;-77
2023/10/14 03:28:21;;;;;;;11.88;1.85;;;;;;;10.48;nan;100790.78;5050731;28;20037;-76
2023/10/14 03:30:58;;;;;;;15.80;2.20;;;;;;;10.41;nan;100795.81;5048935;28;20032;-76
2023/10/14 03:33:27;;;;;;;12.88;2.25;;;;;;;10.32;nan;100803.75;5050765;28;20162;-77
2023/10/14 03:36:00;;;;;;;11.15;2.30;;;;;;;10.23;nan;100810.75;5050301;28;20021;-76
2023/10/14 03:38:33;;;;;;;12.13;2.20;;;;;;;10.18;nan;100805.84;5050587;28;20040;-76
2023/10/14 03:41:18;;;;;;;15.32;2.15;;;;;;;10.18;nan;100810.28;5050613;28;20088;-76
2023/10/14 03:46:15;;;;;;;11.68;2.00;;;;;;;10.15;nan;100814.09;5049334;28;20041;-76
2023/10/14 03:48:48;;;;;;;13.45;2.40;;;;;;;10.23;nan;100822.19;5050101;28;20098;-76
2023/10/14 03:51:22;;;;;;;10.48;2.15;;;;;;;10.23;nan;100834.66;5050699;28;20124;-77
2023/10/14 03:53:54;;;;;;;13.35;2.17;;;;;;;10.22;nan;100835.63;5050770;28;20033;-79
2023/10/14 03:56:25;;;;;;;12.93;2.40;;;;;;;10.22;nan;100828.50;5050345;28;20076;-78
2023/10/14 03:59:00;;;;;;;14.50;2.20;;;;;;;10.27;nan;100852.03;5050653;28;20037;-77
2023/10/14 04:04:17;;;;;;;13.45;2.33;;;;;;;10.34;nan;100857.66;5050292;28;20071;-76
2023/10/14 04:06:50;;;;;;;13.15;2.30;;;;;;;10.31;nan;100852.59;5050640;28;20132;-78
2023/10/14 04:09:24;;;;;;;18.38;3.00;;;;;;;10.24;nan;100858.47;5043192;28;20045;-78
2023/10/14 04:11:52;;;;;;;16.38;2.40;;;;;;;10.28;nan;100863.50;5030473;28;20078;-78
2023/10/14 04:14:22;;;;;;;16.42;2.38;;;;;;;10.26;nan;100871.63;4996020;28;20042;-77
2023/10/14 04:17:09;;;;;;;16.33;2.22;;;;;;;10.21;nan;100880.00;5030194;28;20041;-77
2023/10/14 04:19:47;;;;;;;12.90;2.42;;;;;;;10.20;nan;100878.31;5030208;28;20037;-77
2023/10/14 04:26:03;;;;;;;14.32;2.22;;;;;;;10.26;nan;100890.22;5030097;28;20048;-77
2023/10/14 04:35:23;;;;;;;14.18;2.78;;;;;;;10.21;nan;100916.38;5033780;28;20041;-77
2023/10/14 04:37:53;;;;;;;16.05;2.53;;;;;;;10.12;nan;100912.72;5033479;28;20404;-77
2023/10/14 04:45:45;;;;;;;17.77;2.72;;;;;;;10.11;nan;100920.84;5033265;28;20041;-77
2023/10/14 04:48:12;;;;;;;18.70;2.20;;;;;;;10.10;nan;100938.59;5032979;28;20493;-77
2023/10/14 04:50:41;;;;;;;16.08;2.10;;;;;;;10.11;nan;100940.28;5033315;28;20044;-78
2023/10/14 04:53:09;;;;;;;10.90;2.28;;;;;;;10.06;nan;100942.47;5033200;28;20455;-76
2023/10/14 04:55:43;;;;;;;20.88;3.28;;;;;;;10.01;nan;100948.19;5033375;28;20030;-77
2023/10/14 04:58:11;;;;;;;13.82;2.38;;;;;;;9.97;nan;100949.47;5032997;28;20103;-77
2023/10/14 05:00:49;;;;;;;13.25;2.15;;;;;;;9.98;nan;100951.13;5033006;28;20041;-77
2023/10/14 05:03:19;;;;;;;13.10;1.90;;;;;;;9.94;nan;100952.38;5032916;28;20053;-76
2023/10/14 05:06:03;;;;;;;10.95;1.80;;;;;;;9.89;nan;100942.13;5032850;28;20029;-76
2023/10/14 05:08:44;;;;;;;15.02;2.20;;;;;;;9.85;nan;100946.03;5032714;28;20041;-76
2023/10/14 05:11:18;;;;;;;13.33;2.27;;;;;;;9.85;nan;100962.00;5033176;28;20117;-77
2023/10/14 05:13:44;;;;;;;12.20;2.30;;;;;;;9.89;nan;100966.03;5032889;28;20083;-78
2023/10/14 05:16:20;;;;;;;12.55;2.17;;;;;;;10.04;nan;100961.22;5032493;28;20105;-77
2023/10/14 05:19:06;;;;;;;15.93;2.95;;;;;;;10.10;nan;100969.66;5032581;28;20034;-78
2023/10/14 05:21:35;;;;;;;14.48;2.30;;;;;;;10.05;nan;100965.59;5032740;28;20037;-76
2023/10/14 05:24:02;;;;;;;20.50;2.78;;;;;;;10.05;nan;100978.03;5032436;28;20064;-75
2023/10/14 05:26:28;;;;;;;22.88;2.50;;;;;;;10.00;nan;100982.88;5032642;28;20109;-75
2023/10/14 05:28:55;;;;;;;16.52;3.05;;;;;;;9.97;nan;100970.72;5014258;28;20056;-78
2023/10/14 05:31:22;;;;;;;16.98;3.10;;;;;;;9.97;nan;100988.47;5032508;28;20163;-76
2023/10/14 05:33:48;;;;;;;17.20;2.35;;;;;;;9.92;nan;100985.38;5032491;28;20057;-75
2023/10/14 05:36:14;;;;;;;23.42;2.58;;;;;;;9.89;nan;100991.78;5014436;28;20385;-75
2023/10/14 05:38:39;;;;;;;15.85;2.40;;;;;;;9.88;nan;100984.78;5031063;28;20038;-75
2023/10/14 05:41:09;;;;;;;17.05;3.03;;;;;;;9.92;nan;100999.50;5031940;28;20410;-76
2023/10/14 05:43:35;;;;;;;12.68;2.30;;;;;;;10.00;nan;101001.50;5032121;28;20025;-76
2023/10/14 05:46:07;;;;;;;18.67;2.80;;;;;;;10.16;nan;101006.34;5031741;28;20041;-75
2023/10/14 05:48:32;;;;;;;27.15;3.45;;;;;;;10.28;nan;101002.63;5032186;28;20056;-76
2023/10/14 05:50:58;;;;;;;20.23;2.65;;;;;;;10.30;nan;101021.09;5031816;28;20045;-78
2023/10/14 05:53:26;;;;;;;12.30;2.70;;;;;;;10.32;nan;101019.19;5031723;28;20449;-76
2023/10/14 05:55:59;;;;;;;18.45;3.00;;;;;;;10.29;nan;101024.75;5031652;28;20034;-75
2023/10/14 05:58:28;;;;;;;22.15;2.72;;;;;;;10.24;nan;101033.97;5031919;28;20060;-76
2023/10/14 06:00:55;;;;;;;16.38;2.97;;;;;;;10.26;nan;101035.66;5031683;28;20065;-79
2023/10/14 06:03:20;;;;;;;15.27;2.97;;;;;;;10.23;nan;101039.44;5031673;28;20030;-77
2023/10/14 06:05:45;;;;;;;18.00;2.75;;;;;;;10.16;nan;101040.91;5013587;28;20139;-77
2023/10/14 06:08:16;;;;;;;15.55;2.75;;;;;;;10.14;nan;101051.69;5031600;28;20351;-76
2023/10/14 06:10:42;;;;;;;11.77;2.00;;;;;;;10.12;nan;101056.31;5031531;28;20056;-77
2023/10/14 06:13:12;;;;;;;10.48;1.92;;;;;;;10.09;nan;101064.53;5031672;28;20037;-76
2023/10/14 06:15:39;;;;;;;21.50;2.72;;;;;;;10.08;nan;101065.50;5031642;28;20475;-77
2023/10/14 06:18:05;;;;;;;16.27;2.72;;;;;;;10.04;nan;101074.72;5031846;28;20053;-75
2023/10/14 06:20:34;;;;;;;15.77;2.78;;;;;;;10.03;nan;101078.34;5013198;28;20457;-76
2023/10/14 06:22:59;;;;;;;16.23;2.30;;;;;;;10.05;nan;101085.22;5031076;28;20426;-76
2023/10/14 06:25:29;;;;;;;12.05;1.95;;;;;;;10.09;nan;101090.28;5031400;28;20051;-76
2023/10/14 06:27:54;;;;;;;17.77;2.40;;;;;;;10.10;nan;101095.44;5031209;28;20026;-75
2023/10/14 06:30:20;;;;;;;20.02;3.08;;;;;;;10.09;nan;101088.47;5031134;28;20110;-77
2023/10/14 06:32:55;;;;;;;10.60;1.92;;;;;;;10.08;nan;101105.38;5031223;28;20034;-77
2023/10/14 06:35:20;;;;;;;18.08;2.42;;;;;;;10.05;nan;101105.66;5031556;28;20061;-76
2023/10/14 06:37:46;;;;;;;10.73;2.17;;;;;;;10.10;nan;101108.75;5031553;28;20057;-76
2023/10/14 06:40:18;;;;;;;10.57;2.22;;;;;;;10.16;nan;101116.19;5013364;28;20501;-76
2023/10/14 06:42:45;;;;;;;11.50;2.00;;;;;;;10.24;nan;101116.41;5031437;28;20026;-75
2023/10/14 06:45:13;;;;;;;20.20;3.20;;;;;;;10.38;nan;101127.72;5013650;28;20124;-75
2023/10/14 06:47:45;;;;;;;17.98;2.78;;;;;;;10.52;nan;101132.69;5031296;28;20030;-77
2023/10/14 06:50:12;;;;;;;18.77;2.70;;;;;;;10.64;nan;101132.63;5030629;28;20107;-78
2023/10/14 06:52:38;;;;;;;15.18;2.10;;;;;;;10.74;nan;101134.34;5031340;28;20438;-76
2023/10/14 06:55:07;;;;;;;11.80;2.28;;;;;;;10.81;nan;101152.44;5030967;28;20044;-76
2023/10/14 06:57:34;;;;;;;15.93;2.50;;;;;;;10.89;nan;101152.63;5013466;28;20045;-76
2023/10/14 07:00:00;;;;;;;22.52;2.80;;;;;;;10.91;nan;101161.31;5031168;28;20124;-76
2023/10/14 07:02:25;;;;;;;15.60;2.70;;;;;;;10.91;nan;101159.53;5031479;28;20117;-76
2023/10/14 07:04:51;;;;;;;15.70;2.47;;;;;;;10.92;nan;101169.16;5031089;28;20039;-76
2023/10/14 07:07:19;;;;;;;26.05;3.03;;;;;;;10.94;nan;101169.91;5030799;28;20037;-78
2023/10/14 07:09:44;;;;;;;14.93;2.95;;;;;;;10.99;nan;101179.28;5030595;28;20057;-77
2023/10/14 07:12:15;;;;;;;17.20;2.45;;;;;;;10.98;nan;101182.94;4997119;28;20053;-77
2023/10/14 07:14:41;;;;;;;17.33;2.50;;;;;;;10.98;nan;101189.09;5031194;28;20037;-77
2023/10/14 07:17:07;;;;;;;26.30;3.00;;;;;;;10.96;nan;101190.19;5031389;28;20056;-77
2023/10/14 07:19:34;;;;;;;14.32;2.90;;;;;;;10.90;nan;101191.59;5030385;28;20033;-76
2023/10/14 07:22:07;;;;;;;15.82;2.78;;;;;;;10.85;nan;101205.31;5030360;28;20405;-79
2023/10/14 07:24:33;;;;;;;20.05;3.15;;;;;;;10.78;nan;101198.81;5030703;28;20146;-77
2023/10/14 07:26:58;;;;;;;14.68;2.47;;;;;;;10.77;nan;101208.59;5030170;28;20120;-76
2023/10/14 07:29:23;;;;;;;15.80;3.15;;;;;;;10.74;nan;101216.03;5030925;28;20120;-78
2023/10/14 07:31:49;;;;;;;13.98;2.65;;;;;;;10.67;nan;101218.34;5012951;28;20121;-76
2023/10/14 07:34:16;;;;;;;14.00;2.80;;;;;;;10.65;nan;101222.13;5030579;28;20041;-77
2023/10/14 07:36:41;;;;;;;11.15;2.08;;;;;;;10.77;nan;101221.91;5030851;28;20124;-77
2023/10/14 07:41:52;;;;;;;14.80;2.42;;;;;;;11.16;nan;101234.59;5030857;28;20151;-77
2023/10/14 07:44:19;;;;;;;9.68;2.40;;;;;;;11.24;nan;101231.25;5012546;28;20449;-77
2023/10/14 07:46:44;;;;;;;12.85;2.35;;;;;;;11.29;nan;101242.38;5030576;28;20037;-77
2023/10/14 07:49:09;;;;;;;23.42;2.70;;;;;;;11.37;nan;101247.03;5030354;28;20431;-76
2023/10/14 07:51:35;;;;;;;12.02;2.17;;;;;;;11.40;nan;101252.09;5013025;28;20045;-77
2023/10/14 07:54:00;;;;;;;13.00;2.95;;;;;;;11.41;nan;101259.09;5030263;28;20342;-77
2023/10/14 07:56:25;;;;;;;11.90;2.22;;;;;;;11.46;nan;101256.88;5030585;28;20083;-77
2023/10/14 07:58:53;;;;;;;20.17;2.80;;;;;;;11.58;nan;101257.63;5030418;28;20073;-76
2023/10/14 08:01:19;;;;;;;12.70;1.90;;;;;;;11.68;nan;101255.00;5031848;28;20132;-77
2023/10/14 08:03:48;;;;;;;12.48;2.42;;;;;;;11.80;nan;101261.88;5034205;28;20117;-76
2023/10/14 08:06:17;;;;;;;12.07;2.47;;;;;;;11.95;nan;101265.03;5033965;28;20108;-77
2023/10/14 08:08:47;;;;;;;12.02;2.28;;;;;;;12.10;nan;101274.31;5034079;28;20075;-77
2023/10/14 08:11:14;;;;;;;13.20;2.20;;;;;;;12.24;nan;101275.75;5016933;28;20071;-77
2023/10/14 08:13:43;;;;;;;11.63;2.42;;;;;;;12.27;nan;101275.47;5034199;28;20025;-77
2023/10/14 08:16:09;;;;;;;19.15;2.75;;;;;;;12.31;nan;101282.19;5034330;28;20045;-77
2023/10/14 08:18:41;;;;;;;14.40;2.40;;;;;;;12.43;nan;101284.72;5033958;28;20041;-76
2023/10/14 08:21:09;;;;;;;19.85;2.35;;;;;;;12.55;nan;101288.94;5034011;28;20029;-77
2023/10/14 08:23:35;;;;;;;12.80;2.30;;;;;;;12.79;nan;101295.66;5034329;28;20037;-76
2023/10/14 08:26:02;;;;;;;17.95;3.35;;;;;;;12.93;nan;101297.03;5033942;28;20370;-76
2023/10/14 08:28:28;;;;;;;24.88;3.15;;;;;;;13.06;nan;101300.25;5033061;28;20026;-77
2023/10/14 08:30:55;;;;;;;12.88;2.58;;;;;;;13.22;nan;101297.81;5033405;28;20037;-76
2023/10/14 08:33:23;;;;;;;13.40;2.38;;;;;;;13.52;nan;101303.94;5033503;28;20065;-76
2023/10/14 08:35:50;;;;;;;16.00;2.97;;;;;;;13.50;nan;101316.63;5033098;28;20037;-76
2023/10/14 08:38:22;;;;;;;15.50;2.67;;;;;;;13.52;nan;101314.63;5033264;28;20071;-77
2023/10/14 08:40:54;;;;;;;17.05;2.75;;;;;;;13.65;nan;101316.97;5033394;28;20041;-77
2023/10/14 08:43:22;;;;;;;12.65;2.45;;;;;;;14.03;nan;101331.16;5033605;28;20043;-76
2023/10/14 08:45:48;;;;;;;11.27;2.35;;;;;;;14.07;nan;101331.69;5033834;28;20042;-76
2023/10/14 08:48:15;;;;;;;17.63;2.45;;;;;;;14.63;nan;101330.63;5033533;28;20036;-77
2023/10/14 08:50:41;;;;;;;13.43;2.42;;;;;;;15.42;nan;101328.03;5015034;28;20400;-77
2023/10/14 08:53:10;;;;;;;13.23;2.20;;;;;;;15.62;nan;101330.47;5033116;28;20029;-77
2023/10/14 08:55:37;;;;;;;20.77;2.67;;;;;;;16.40;nan;101337.44;5015985;28;20033;-77
2023/10/14 08:58:05;;;;;;;14.07;2.42;;;;;;;17.17;nan;101341.72;5033190;28;20025;-77
2023/10/14 09:00:36;;;;;;;17.90;2.83;;;;;;;17.37;nan;101339.47;5033313;28;20496;-77
2023/10/14 09:03:02;;;;;;;20.25;2.45;;;;;;;17.79;nan;101344.56;5033263;28;20112;-77
2023/10/14 09:05:30;;;;;;;12.15;2.10;;;;;;;17.14;nan;101347.41;5033288;28;20044;-76
2023/10/14 09:07:57;;;;;;;14.15;2.90;;;;;;;17.23;nan;101359.84;5033087;28;20426;-76
2023/10/14 09:10:26;;;;;;;11.13;2.53;;;;;;;17.27;nan;101364.72;5033162;28;20049;-77
2023/10/14 09:12:59;;;;;;;14.88;2.97;;;;;;;17.25;nan;101360.50;5031859;28;20124;-77
2023/10/14 09:15:29;;;;;;;12.13;2.30;;;;;;;16.35;nan;101362.09;5032780;28;20099;-78
2023/10/14 09:17:56;;;;;;;10.20;2.20;;;;;;;16.70;nan;101367.38;5014925;28;20056;-76
2023/10/14 09:20:30;;;;;;;10.50;2.28;;;;;;;17.08;nan;101370.44;5032788;28;20113;-77
2023/10/14 09:23:15;;;;;;;11.57;2.55;;;;;;;17.08;nan;101375.81;5033007;28;20029;-76
2023/10/14 09:25:44;;;;;;;13.30;2.40;;;;;;;15.99;nan;101391.03;5032870;28;20034;-77
2023/10/14 09:28:10;;;;;;;17.08;2.58;;;;;;;14.86;nan;101389.06;5032350;28;20101;-76
2023/10/14 09:30:37;;;;;;;15.27;2.42;;;;;;;15.09;nan;101384.09;5032499;28;20118;-76
2023/10/14 09:33:04;;;;;;;20.13;2.92;;;;;;;16.21;nan;101386.91;5032543;28;20112;-76
2023/10/14 09:35:30;;;;;;;12.77;2.78;;;;;;;16.47;nan;101392.19;5032227;28;20034;-76
2023/10/14 09:37:59;;;;;;;14.93;2.65;;;;;;;16.19;nan;101392.44;5032464;28;20077;-76
2023/10/14 09:40:25;;;;;;;13.07;2.30;;;;;;;15.81;nan;101400.00;5031993;28;20446;-76
2023/10/14 09:42:52;;;;;;;13.57;2.50;;;;;;;15.52;nan;101402.97;5032364;28;20038;-77
2023/10/14 09:45:20;;;;;;;12.35;2.35;;;;;;;15.19;nan;101402.75;5032534;28;20040;-77
2023/10/14 09:47:47;;;;;;;22.98;2.33;;;;;;;14.99;nan;101402.09;5032074;28;20085;-76
2023/10/14 09:50:14;;;;;;;11.15;1.92;;;;;;;15.31;nan;101406.03;5032417;28;20064;-76
2023/10/14 09:52:43;;;;;;;13.98;2.45;;;;;;;15.54;nan;101411.72;5031865;28;20095;-76
2023/10/14 09:55:14;;;;;;;14.30;2.22;;;;;;;15.37;nan;101413.44;5031730;28;20129;-82
2023/10/14 09:57:44;;;;;;;14.45;2.25;;;;;;;15.32;nan;101426.47;5031898;28;20120;-75
2023/10/14 10:00:11;;;;;;;14.00;2.88;;;;;;;15.37;nan;101426.84;5031401;28;20327;-76
2023/10/14 10:02:40;;;;;;;14.32;2.20;;;;;;;15.42;nan;101418.31;5031476;28;20112;-76
2023/10/14 10:05:07;;;;;;;16.02;2.50;;;;;;;15.68;nan;101424.53;5013657;28;20037;-74
2023/10/14 10:07:44;;;;;;;9.50;1.88;;;;;;;15.93;nan;101429.22;5031808;28;20029;-75
2023/10/14 10:10:13;;;;;;;14.23;2.47;;;;;;;16.20;nan;101434.38;5031286;28;20482;-81
2023/10/14 10:12:43;;;;;;;10.18;2.35;;;;;;;16.16;nan;101441.06;5031500;28;20463;-76
2023/10/14 10:15:09;;;;;;;13.13;2.40;;;;;;;15.86;nan;101451.31;5031232;28;20394;-77
2023/10/14 10:17:39;;;;;;;16.08;2.42;;;;;;;15.22;nan;101448.00;5031638;28;20026;-74
2023/10/14 10:20:09;;;;;;;16.20;1.95;;;;;;;14.80;nan;101446.78;5031719;28;20037;-76
2023/10/14 10:22:56;;;;;;;10.50;2.30;;;;;;;14.46;nan;101458.13;5031811;28;20075;-75
2023/10/14 10:25:37;;;;;;;16.77;2.20;;;;;;;14.32;nan;101463.13;5031264;28;20029;-75
2023/10/14 10:28:43;;;;;;;11.73;2.80;;;;;;;13.93;nan;101453.44;5031295;28;20112;-74
2023/10/14 10:31:23;;;;;;;11.68;2.50;;;;;;;13.67;nan;101462.06;4931604;29;20063;-77
2023/10/14 10:33:57;;;;;;;10.98;2.22;;;;;;;13.49;nan;101471.81;4931510;29;20040;-74
2023/10/14 10:36:25;;;;;;;11.65;2.30;;;;;;;13.56;nan;101470.25;4994853;28;20057;-75
2023/10/14 10:38:53;;;;;;;13.65;2.15;;;;;;;13.54;nan;101467.72;5030979;28;20065;-76
2023/10/14 10:41:25;;;;;;;8.52;1.63;;;;;;;13.48;nan;101475.47;5031231;28;20032;-76
2023/10/14 10:44:09;;;;;;;7.93;1.90;;;;;;;13.48;nan;101470.97;5031310;28;20037;-74
2023/10/14 10:46:54;;;;;;;12.13;1.98;;;;;;;13.28;nan;101474.63;5030747;28;20056;-75
2023/10/14 10:49:51;;;;;;;8.57;1.73;;;;;;;13.11;nan;101482.34;5031032;28;20473;-75
2023/10/14 10:52:17;;;;;;;12.23;2.17;;;;;;;13.08;nan;101485.31;5030708;28;20026;-76
2023/10/14 10:54:45;;;;;;;14.90;2.45;;;;;;;13.08;nan;101479.09;5031083;28;20028;-76
2023/10/14 10:57:13;;;;;;;17.77;2.45;;;;;;;13.14;nan;101478.56;5031469;28;20095;-75
2023/10/14 10:59:40;;;;;;;6.60;1.83;;;;;;;13.18;nan;101480.81;5030894;28;20155;-74
2023/10/14 11:02:08;;;;;;;9.65;1.73;;;;;;;13.20;nan;101492.19;5030900;28;20030;-75
2023/10/14 11:04:34;;;;;;;13.18;2.60;;;;;;;13.19;nan;101490.50;5030747;28;20033;-76
2023/10/14 11:07:00;;;;;;;8.05;1.75;;;;;;;13.18;nan;101494.16;5030887;28;20034;-75
2023/10/14 11:09:31;;;;;;;9.70;1.70;;;;;;;13.24;nan;101492.75;5030816;28;20053;-77
2023/10/14 11:12:00;;;;;;;9.02;1.98;;;;;;;13.24;nan;101487.41;5031098;28;20104;-75
2023/10/14 11:14:26;;;;;;;9.00;1.65;;;;;;;13.40;nan;101484.19;5030812;28;20056;-75
2023/10/14 11:16:56;;;;;;;8.20;2.13;;;;;;;13.54;nan;101498.94;5030527;28;20022;-74
2023/10/14 11:19:21;;;;;;;8.57;1.48;;;;;;;13.64;nan;101493.59;5030352;28;20041;-75
2023/10/14 11:21:51;;;;;;;15.07;2.38;;;;;;;13.72;nan;101512.47;5031036;28;20493;-74
2023/10/14 11:24:17;;;;;;;15.05;2.20;;;;;;;13.71;nan;101500.91;5030621;28;20040;-75
2023/10/14 11:26:44;;;;;;;11.45;1.70;;;;;;;13.77;nan;101504.84;5030725;28;20030;-76
2023/10/14 11:29:10;;;;;;;8.43;1.60;;;;;;;13.70;nan;101506.41;5030786;28;20037;-76
2023/10/14 11:31:39;;;;;;;9.70;2.20;;;;;;;13.49;nan;101509.25;5030504;28;20036;-76
2023/10/14 11:34:06;;;;;;;11.80;1.80;;;;;;;13.35;nan;101514.03;5030472;28;20034;-76
2023/10/14 11:36:32;;;;;;;12.48;2.88;;;;;;;13.23;nan;101517.78;5032498;28;20423;-76
2023/10/14 11:38:58;;;;;;;11.25;2.00;;;;;;;13.26;nan;101525.53;5035047;28;20072;-75
2023/10/14 11:41:27;;;;;;;9.38;1.85;;;;;;;13.46;nan;101522.88;5034557;28;20417;-76
2023/10/14 11:43:53;;;;;;;12.75;2.95;;;;;;;13.29;nan;101521.75;5016699;28;20037;-76
2023/10/14 11:46:19;;;;;;;7.30;1.40;;;;;;;13.09;nan;101542.25;5034254;28;20029;-75
2023/10/14 11:48:46;;;;;;;10.05;1.92;;;;;;;12.94;nan;101536.44;5034355;28;20029;-75
2023/10/14 11:51:19;;;;;;;15.02;2.28;;;;;;;13.01;nan;101532.25;5034521;28;20033;-75
2023/10/14 11:53:46;;;;;;;7.55;1.65;;;;;;;13.07;nan;101539.72;5034614;28;20108;-75
2023/10/14 11:56:15;;;;;;;12.73;2.03;;;;;;;13.16;nan;101533.53;5034496;28;20049;-76
2023/10/14 11:58:41;;;;;;;20.75;2.10;;;;;;;13.21;nan;101538.44;5034299;28;20088;-75
2023/10/14 12:01:09;;;;;;;11.48;1.63;;;;;;;13.24;nan;101522.13;5016270;28;20180;-74
2023/10/14 12:03:35;;;;;;;11.07;2.42;;;;;;;13.24;nan;101538.16;5034319;28;20048;-76
2023/10/14 12:06:01;;;;;;;10.77;1.73;;;;;;;13.29;nan;101524.41;5034724;28;20135;-76
2023/10/14 12:08:32;;;;;;;13.05;2.15;;;;;;;13.29;nan;101533.28;5033919;28;20462;-75
2023/10/14 12:10:59;;;;;;;16.05;1.65;;;;;;;13.36;nan;101529.09;5034671;28;20082;-75
2023/10/14 12:13:26;;;;;;;12.32;2.20;;;;;;;13.71;nan;101537.50;5034268;28;20029;-77